createdAt,value
2023-03-02T00:03:33.585Z,16.50
2023-03-02T00:08:37.022Z,17.33
2023-03-02T00:13:39.571Z,17.30
2023-03-02T00:18:41.808Z,16.83
2023-03-02T00:23:45.023Z,17.25
2023-03-02T00:28:47.294Z,16.15
2023-03-02T00:33:51.237Z,16.02
2023-03-02T00:38:53.683Z,16.60
2023-03-02T00:43:56.131Z,16.20
2023-03-02T00:48:58.357Z,16.00
2023-03-02T00:54:02.947Z,15.77
2023-03-02T00:59:06.666Z,15.40
2023-03-02T01:04:09.701Z,15.45
2023-03-02T01:09:12.557Z,15.70
2023-03-02T01:14:15.372Z,16.67
2023-03-02T01:19:18.752Z,15.98
2023-03-02T01:24:21.078Z,15.80
2023-03-02T01:29:23.338Z,15.75
2023-03-02T01:34:25.808Z,16.30
2023-03-02T01:39:28.279Z,15.57
2023-03-02T01:49:56.003Z,15.77
2023-03-02T01:55:06.146Z,16.15
2023-03-02T02:00:10.557Z,16.65
2023-03-02T02:05:22.517Z,15.40
2023-03-02T02:10:24.843Z,15.32
2023-03-02T02:15:27.421Z,15.77
2023-03-02T02:36:22.994Z,16.52
2023-03-02T02:41:29.729Z,15.75
2023-03-02T02:46:33.391Z,16.17
2023-03-02T02:51:35.948Z,17.63
2023-03-02T02:56:40.438Z,17.65
2023-03-02T03:01:47.769Z,17.63
2023-03-02T03:06:53.906Z,18.85
2023-03-02T03:12:03.245Z,18.52
2023-03-02T03:17:12.203Z,18.00
2023-03-02T03:22:18.597Z,18.25
2023-03-02T03:27:23.571Z,17.98
2023-03-02T03:32:26.020Z,18.67
2023-03-02T03:37:30.838Z,19.73
2023-03-02T03:42:33.411Z,19.63
2023-03-02T03:47:37.090Z,18.73
2023-03-02T03:52:41.396Z,19.08
2023-03-02T03:57:50.340Z,19.40
2023-03-02T04:02:53.031Z,18.83
2023-03-02T04:07:56.102Z,19.88
2023-03-02T04:12:58.840Z,19.38
2023-03-02T04:18:01.423Z,18.25
2023-03-02T04:23:03.952Z,19.58
2023-03-02T04:28:06.282Z,19.58
2023-03-02T04:33:12.524Z,20.08
2023-03-02T04:38:15.492Z,18.58
2023-03-02T04:43:18.545Z,18.83
2023-03-02T04:48:22.060Z,19.00
2023-03-02T04:53:24.283Z,18.58
2023-03-02T04:58:26.548Z,19.42
2023-03-02T05:03:29.051Z,18.92
2023-03-02T05:08:31.920Z,18.33
2023-03-02T05:13:34.939Z,18.60
2023-03-02T05:18:37.193Z,18.20
2023-03-02T05:23:39.448Z,18.60
2023-03-02T05:28:42.213Z,18.83
2023-03-02T05:33:44.984Z,19.70
2023-03-02T05:38:47.279Z,17.92
2023-03-02T05:43:49.495Z,18.20
2023-03-02T05:48:52.184Z,18.17
2023-03-02T05:53:54.740Z,20.00
2023-03-02T05:58:56.983Z,19.02
2023-03-02T06:03:59.228Z,19.98
2023-03-02T06:09:01.661Z,20.13
2023-03-02T06:14:03.960Z,20.20
2023-03-02T06:19:06.581Z,22.00
2023-03-02T06:24:09.118Z,20.38
2023-03-02T06:29:13.191Z,20.55
2023-03-02T06:34:16.453Z,21.35
2023-03-02T06:39:19.009Z,22.70
2023-03-02T06:44:21.310Z,22.17
2023-03-02T06:49:24.862Z,22.95
2023-03-02T06:54:27.177Z,23.02
2023-03-02T06:59:29.517Z,22.73
2023-03-02T07:04:31.760Z,22.85
2023-03-02T07:09:34.415Z,23.67
2023-03-02T07:14:36.821Z,24.50
2023-03-02T07:19:40.924Z,23.95
2023-03-02T07:24:44.961Z,24.40
2023-03-02T07:29:47.453Z,23.40
2023-03-02T07:34:49.903Z,24.17
2023-03-02T07:39:52.124Z,24.20
2023-03-02T07:44:54.404Z,23.92
2023-03-02T07:49:56.777Z,24.67
2023-03-02T07:54:59.224Z,24.95
2023-03-02T08:00:01.574Z,25.80
2023-03-02T08:05:15.827Z,26.73
2023-03-02T08:10:18.129Z,26.13
2023-03-02T08:15:20.415Z,25.58
2023-03-02T08:20:22.710Z,25.90
2023-03-02T08:25:25.289Z,25.33
2023-03-02T08:30:27.611Z,23.50
2023-03-02T08:35:29.972Z,23.42
2023-03-02T08:40:32.256Z,24.05
2023-03-02T08:45:35.032Z,24.08
2023-03-02T08:50:37.290Z,23.60
2023-03-02T08:55:39.693Z,25.08
2023-03-02T09:00:42.071Z,24.58
2023-03-02T09:05:44.635Z,25.02
2023-03-02T09:10:46.837Z,23.17
2023-03-02T09:15:49.068Z,23.92
2023-03-02T09:20:52.311Z,22.90
2023-03-02T09:25:55.349Z,23.08
2023-03-02T09:30:59.533Z,20.98
2023-03-02T09:36:06.236Z,20.25
2023-03-02T09:46:52.487Z,19.52
2023-03-02T09:52:28.963Z,18.65
2023-03-02T09:57:37.521Z,20.17
2023-03-02T10:03:11.346Z,20.27
2023-03-02T10:08:23.432Z,20.38
2023-03-02T10:13:44.982Z,20.40
2023-03-02T10:18:58.668Z,20.63
2023-03-02T10:24:28.656Z,19.85
2023-03-02T10:34:41.807Z,21.05
2023-03-02T10:39:44.286Z,22.60
2023-03-02T10:44:51.092Z,20.10
2023-03-02T10:49:57.086Z,21.75
2023-03-02T10:55:14.113Z,20.15
2023-03-02T11:05:30.890Z,21.42
2023-03-02T11:15:50.788Z,20.95
2023-03-02T11:20:59.644Z,21.33
2023-03-02T11:26:08.048Z,21.70
2023-03-02T11:31:21.552Z,20.45
2023-03-02T11:36:35.816Z,21.48
2023-03-02T11:41:38.288Z,22.17
2023-03-02T11:46:41.745Z,20.05
2023-03-02T11:51:58.263Z,22.27
2023-03-02T12:27:27.220Z,21.38
2023-03-02T12:54:06.173Z,20.08
2023-03-02T12:59:24.416Z,20.05
2023-03-02T13:04:27.378Z,21.27
2023-03-02T13:09:29.786Z,20.13
2023-03-02T13:14:32.303Z,21.73
2023-03-02T13:19:34.715Z,20.65
2023-03-02T13:30:13.107Z,21.75
2023-03-02T13:35:20.825Z,20.77
2023-03-02T13:45:33.489Z,20.90
2023-03-02T13:50:35.800Z,19.65
2023-03-02T13:55:40.376Z,21.02
2023-03-02T14:00:42.888Z,20.23
2023-03-02T14:05:45.201Z,18.23
2023-03-02T14:10:49.559Z,17.95
2023-03-02T14:15:53.689Z,17.55
2023-03-02T14:20:56.954Z,16.98
2023-03-02T14:25:59.448Z,17.70
2023-03-02T14:31:01.885Z,16.25
2023-03-02T14:36:06.188Z,15.85
2023-03-02T14:41:17.298Z,16.75
2023-03-02T14:46:19.703Z,17.33
2023-03-02T14:51:26.335Z,16.15
2023-03-02T14:56:29.262Z,16.13
2023-03-02T15:01:32.327Z,19.77
2023-03-02T15:06:39.148Z,25.13
2023-03-02T15:11:42.269Z,25.60
2023-03-02T15:16:45.539Z,20.92
2023-03-02T15:21:47.954Z,25.38
2023-03-02T15:26:51.157Z,31.15
2023-03-02T15:31:53.591Z,23.00
2023-03-02T15:36:55.961Z,20.60
2023-03-02T16:08:06.963Z,19.55
2023-03-02T16:13:35.276Z,31.60
2023-03-02T16:18:37.687Z,24.90
2023-03-02T16:23:39.938Z,18.35
2023-03-02T16:28:42.736Z,19.33
2023-03-02T16:49:14.316Z,21.38
2023-03-02T16:54:42.235Z,21.30
2023-03-02T16:59:44.686Z,24.45
2023-03-02T17:04:46.938Z,22.10
2023-03-02T17:09:49.202Z,21.35
2023-03-02T17:14:51.398Z,21.20
2023-03-02T17:19:53.683Z,23.55
2023-03-02T17:24:55.958Z,20.42
2023-03-02T17:29:58.277Z,22.10
2023-03-02T17:35:00.518Z,20.90
2023-03-02T17:40:02.936Z,19.58
2023-03-02T17:45:05.921Z,21.33
2023-03-02T18:04:49.191Z,23.40
2023-03-02T18:09:52.058Z,27.63
2023-03-02T18:14:54.267Z,22.88
2023-03-02T18:19:56.500Z,41.22
2023-03-02T18:24:58.795Z,19.50
2023-03-02T18:30:01.009Z,24.90
2023-03-02T18:35:03.356Z,21.92
2023-03-02T18:40:06.665Z,20.38
2023-03-02T18:45:09.826Z,24.45
2023-03-02T18:50:12.497Z,25.38
2023-03-02T18:55:15.575Z,22.20
2023-03-02T19:00:21.857Z,19.10
2023-03-02T19:05:27.157Z,18.90
2023-03-02T19:10:29.522Z,22.17
2023-03-02T19:15:34.838Z,25.33
2023-03-02T19:20:37.202Z,19.58
2023-03-02T19:25:40.058Z,31.60
